createdAt,value
2023-05-25T00:00:13.600Z,84.8109
2023-05-25T00:01:14.981Z,84.4183
2023-05-25T00:02:15.850Z,84.4292
2023-05-25T00:03:16.603Z,84.3033
2023-05-25T00:04:17.797Z,84.1183
2023-05-25T00:05:18.551Z,84.3931
2023-05-25T00:06:18.734Z,83.1984
2023-05-25T00:08:20.091Z,83.9705
2023-05-25T00:09:20.800Z,83.7588
2023-05-25T00:10:21.379Z,83.5532
2023-05-25T00:11:22.546Z,84.3562
2023-05-25T00:12:23.729Z,84.3353
2023-05-25T00:13:23.983Z,84.4432
2023-05-25T00:14:24.331Z,84.2033
2023-05-25T00:15:24.655Z,84.3586
2023-05-25T00:16:25.456Z,84.0704
2023-05-25T00:17:25.732Z,84.4941
2023-05-25T00:18:27.801Z,85.4019
2023-05-25T00:23:30.228Z,85.4101
2023-05-25T00:24:31.074Z,85.2322
2023-05-25T00:25:31.286Z,84.8051
2023-05-25T00:26:32.098Z,85.4512
2023-05-25T00:27:32.221Z,85.5288
2023-05-25T00:28:33.881Z,85.5617
2023-05-25T00:29:35.003Z,84.8477
2023-05-25T00:30:35.506Z,85.8338
2023-05-25T00:31:35.996Z,85.7439
2023-05-25T00:32:37.491Z,85.0178
2023-05-25T00:33:37.765Z,84.5856
2023-05-25T00:38:40.972Z,84.6355
2023-05-25T00:39:42.091Z,84.5340
2023-05-25T00:40:42.473Z,84.2819
2023-05-25T00:41:43.534Z,84.2904
2023-05-25T00:42:43.982Z,84.2289
2023-05-25T00:43:44.697Z,84.6705
2023-05-25T00:45:45.880Z,83.7967
2023-05-25T00:57:53.156Z,82.5695
2023-05-25T00:58:54.067Z,82.1231
2023-05-25T01:00:54.602Z,82.3169
2023-05-25T01:03:55.790Z,82.6540
2023-05-25T01:04:56.408Z,82.1664
2023-05-25T01:05:56.633Z,83.2360
2023-05-25T01:06:57.186Z,83.9712
2023-05-25T01:19:05.662Z,84.2275
2023-05-25T01:20:11.413Z,85.6483
2023-05-25T01:21:09.482Z,86.7887
2023-05-25T01:22:10.186Z,86.0317
2023-05-25T01:23:10.714Z,85.3613
2023-05-25T01:24:11.414Z,84.4219
2023-05-25T01:25:12.996Z,84.4109
2023-05-25T01:26:13.441Z,85.8581
2023-05-25T01:27:14.176Z,85.2242
2023-05-25T01:28:15.047Z,85.1646
2023-05-25T01:29:15.194Z,86.2850
2023-05-25T01:30:15.876Z,85.7614
2023-05-25T01:31:17.827Z,86.7644
2023-05-25T01:40:27.734Z,90.7879
2023-05-25T01:41:28.286Z,89.6593
2023-05-25T01:45:30.485Z,89.2059
2023-05-25T01:46:32.054Z,88.2858
2023-05-25T01:47:32.063Z,91.1712
2023-05-25T01:48:33.052Z,91.5703
2023-05-25T01:49:34.769Z,91.2402
2023-05-25T01:50:34.914Z,90.9728
2023-05-25T01:51:35.288Z,90.9269
2023-05-25T01:52:36.856Z,90.4670
2023-05-25T01:53:37.082Z,89.8564
2023-05-25T01:54:37.876Z,89.5608
2023-05-25T01:55:38.794Z,89.3939
2023-05-25T01:56:39.954Z,88.3753
2023-05-25T01:57:41.276Z,88.8926
2023-05-25T01:58:42.215Z,88.9743
2023-05-25T01:59:43.252Z,88.3875
2023-05-25T02:00:43.601Z,89.1129
2023-05-25T02:01:45.062Z,91.0443
2023-05-25T02:02:46.041Z,90.5378
2023-05-25T02:04:45.815Z,89.2637
2023-05-25T02:05:46.781Z,89.3564
2023-05-25T02:06:47.470Z,88.4317
2023-05-25T02:07:47.532Z,88.9134
2023-05-25T02:08:47.708Z,87.9511
2023-05-25T02:09:47.831Z,87.8154
2023-05-25T02:10:48.808Z,87.3996
2023-05-25T02:11:49.161Z,89.1223
2023-05-25T02:12:49.848Z,86.0149
2023-05-25T02:13:50.603Z,87.8744
2023-05-25T02:14:50.228Z,87.0618
2023-05-25T02:15:50.854Z,86.3923
2023-05-25T02:17:53.613Z,86.1451
2023-05-25T02:18:54.508Z,86.2166
2023-05-25T02:19:54.739Z,85.0523
2023-05-25T02:31:59.541Z,85.1631
2023-05-25T02:32:59.658Z,85.4907
2023-05-25T02:34:00.026Z,86.3246
2023-05-25T02:35:00.309Z,85.8933
2023-05-25T02:36:02.164Z,86.4085
2023-05-25T02:37:03.347Z,87.6671
2023-05-25T02:38:04.290Z,87.2103
2023-05-25T02:39:04.821Z,87.8739
2023-05-25T02:40:05.538Z,88.7720
2023-05-25T02:41:05.579Z,88.5703
2023-05-25T02:42:06.374Z,87.8044
2023-05-25T02:43:06.445Z,88.9841
2023-05-25T02:52:13.530Z,93.1531
2023-05-25T02:53:14.547Z,92.9366
2023-05-25T02:54:16.421Z,93.1566
2023-05-25T02:59:18.598Z,93.9712
2023-05-25T03:00:19.721Z,94.0188
2023-05-25T03:01:19.972Z,94.0191
2023-05-25T03:02:21.795Z,94.4228
2023-05-25T03:03:22.934Z,94.5330
2023-05-25T03:04:24.115Z,94.2025
2023-05-25T03:06:25.650Z,94.4161
2023-05-25T03:09:26.109Z,94.2170
2023-05-25T03:10:27.108Z,93.8704
2023-05-25T03:11:27.170Z,94.1503
2023-05-25T03:12:28.138Z,94.1669
2023-05-25T03:13:28.317Z,94.5620
2023-05-25T03:14:28.408Z,94.6792
2023-05-25T03:17:30.033Z,95.1567
2023-05-25T03:18:30.176Z,95.1395
2023-05-25T03:19:32.192Z,95.0549
2023-05-25T03:20:33.945Z,94.9629
2023-05-25T03:21:34.686Z,95.1948
2023-05-25T03:22:35.085Z,95.4580
2023-05-25T03:23:36.460Z,95.4338
2023-05-25T03:24:37.616Z,95.5238
2023-05-25T03:25:38.319Z,95.3194
2023-05-25T03:26:39.388Z,95.1352
2023-05-25T03:27:39.667Z,94.9745
2023-05-25T03:28:40.128Z,94.8301
2023-05-25T03:29:40.432Z,94.7078
2023-05-25T03:30:41.004Z,94.9090
2023-05-25T03:31:41.148Z,94.8151
2023-05-25T03:32:42.017Z,94.5206
2023-05-25T03:33:43.133Z,94.3192
2023-05-25T03:37:46.558Z,94.4475
2023-05-25T03:38:46.688Z,94.4878
2023-05-25T03:39:46.798Z,94.2515
2023-05-25T03:54:00.342Z,93.9537
2023-05-25T03:56:02.023Z,93.5493
2023-05-25T03:57:02.224Z,93.4813
2023-05-25T03:59:02.678Z,93.4590
2023-05-25T04:00:03.151Z,92.9053
2023-05-25T04:04:04.544Z,93.2381
2023-05-25T04:05:04.564Z,92.9960
2023-05-25T04:06:06.552Z,93.1471
2023-05-25T04:07:07.513Z,93.1287
2023-05-25T04:08:08.487Z,92.9556
2023-05-25T04:09:08.823Z,92.0352
2023-05-25T04:10:09.781Z,92.8441
2023-05-25T04:11:11.582Z,92.8324
2023-05-25T04:14:12.054Z,93.4422
2023-05-25T04:15:12.861Z,93.6304
2023-05-25T04:16:14.037Z,92.6891
2023-05-25T04:17:14.671Z,91.9473
2023-05-25T04:18:16.165Z,91.8783
2023-05-25T04:20:16.397Z,91.8210
2023-05-25T04:21:16.772Z,91.7414
2023-05-25T04:22:17.838Z,91.9444
2023-05-25T04:23:19.313Z,91.7366
2023-05-25T04:24:20.253Z,91.0714
2023-05-25T04:25:20.301Z,91.3688
2023-05-25T04:26:21.072Z,91.7330
2023-05-25T04:27:21.246Z,91.7646
2023-05-25T04:28:22.304Z,91.4832
2023-05-25T04:29:23.226Z,91.7747
2023-05-25T04:30:24.144Z,91.9516
2023-05-25T04:31:25.135Z,92.5307
2023-05-25T04:32:25.335Z,91.6360
2023-05-25T04:33:25.514Z,92.4298
2023-05-25T04:34:26.236Z,92.4851
2023-05-25T04:35:27.351Z,91.6224
2023-05-25T04:37:29.455Z,91.3139
2023-05-25T04:40:30.037Z,92.1742
2023-05-25T04:43:31.686Z,93.0792
2023-05-25T04:44:32.426Z,91.7711
2023-05-25T04:46:35.152Z,92.4658
2023-05-25T04:47:35.985Z,92.1276
2023-05-25T04:48:36.166Z,92.5950
2023-05-25T04:49:36.935Z,93.0039
2023-05-25T04:50:38.318Z,92.8043
2023-05-25T04:51:38.525Z,93.2662
2023-05-25T04:52:38.786Z,91.7317
2023-05-25T04:53:40.614Z,91.1838
2023-05-25T04:59:44.361Z,91.6956
2023-05-25T05:07:50.000Z,90.0709
2023-05-25T05:10:48.832Z,92.0144
2023-05-25T05:11:49.273Z,91.7404
2023-05-25T05:12:50.075Z,92.4595
2023-05-25T05:13:50.503Z,91.7325
2023-05-25T05:14:50.996Z,90.6686
2023-05-25T05:20:53.606Z,89.6005
2023-05-25T05:21:53.810Z,89.5276
2023-05-25T05:22:53.842Z,90.4327
2023-05-25T05:23:55.220Z,92.0868
2023-05-25T05:29:58.670Z,87.9480
2023-05-25T05:30:59.578Z,89.0861
2023-05-25T05:31:59.962Z,88.0599
2023-05-25T05:33:01.287Z,88.4828
2023-05-25T05:35:01.462Z,88.0986
2023-05-25T05:36:03.119Z,87.9712
2023-05-25T05:37:03.221Z,88.0474
2023-05-25T05:38:04.244Z,90.1086
2023-05-25T05:39:04.757Z,88.4760
2023-05-25T05:40:05.668Z,87.9638
2023-05-25T05:41:06.674Z,88.2222
2023-05-25T05:42:07.708Z,88.2000
2023-05-25T05:43:08.155Z,87.6813
2023-05-25T05:44:08.684Z,87.0036
2023-05-25T05:45:09.852Z,87.5861
2023-05-25T05:46:10.589Z,86.8743
2023-05-25T05:47:12.363Z,86.9747
2023-05-25T05:48:13.435Z,87.7606
2023-05-25T05:58:20.337Z,87.9759
2023-05-25T05:59:20.881Z,88.2840
2023-05-25T06:00:21.294Z,87.1655
2023-05-25T06:01:22.351Z,86.6203
2023-05-25T06:03:22.607Z,86.2470
2023-05-25T06:04:23.618Z,85.9342
2023-05-25T06:05:24.584Z,86.0300
2023-05-25T06:06:25.632Z,87.7109
2023-05-25T06:07:25.873Z,87.2912
2023-05-25T06:08:26.834Z,87.3490
2023-05-25T06:09:28.316Z,87.6624
2023-05-25T06:10:28.456Z,86.7348
2023-05-25T06:11:28.783Z,87.1358
2023-05-25T06:12:30.603Z,86.7624
2023-05-25T06:17:32.843Z,86.1823
2023-05-25T06:18:33.170Z,85.2335
2023-05-25T06:19:33.626Z,85.3831
2023-05-25T06:20:34.880Z,85.6501
2023-05-25T06:21:36.172Z,84.6177
2023-05-25T06:22:37.701Z,85.9886
2023-05-25T06:23:38.391Z,85.3121
2023-05-25T06:24:39.902Z,84.3338
2023-05-25T06:25:40.996Z,84.6009
2023-05-25T06:26:41.202Z,84.7193
2023-05-25T06:27:43.203Z,84.2863
2023-05-25T06:28:43.558Z,83.8418
2023-05-25T06:29:44.236Z,83.6103
2023-05-25T06:30:44.334Z,83.2534
2023-05-25T06:31:45.199Z,83.3661
2023-05-25T06:32:45.604Z,83.2268
2023-05-25T06:34:48.414Z,82.4911
2023-05-25T06:35:47.752Z,82.9229
2023-05-25T06:36:48.523Z,82.9734
2023-05-25T06:37:48.639Z,81.9718
2023-05-25T06:38:49.075Z,82.8327
2023-05-25T06:39:50.821Z,82.6838
2023-05-25T06:47:55.931Z,82.7217
2023-05-25T06:48:56.689Z,82.3485
2023-05-25T06:49:56.925Z,82.5849
2023-05-25T06:50:57.015Z,81.4512
2023-05-25T06:51:57.508Z,81.6874
2023-05-25T06:53:01.308Z,81.9019
2023-05-25T06:54:02.442Z,82.5139
2023-05-25T06:57:02.832Z,81.1770
2023-05-25T06:58:03.807Z,81.1793
2023-05-25T06:59:04.143Z,82.2242
2023-05-25T07:00:05.259Z,82.5081
2023-05-25T07:01:05.360Z,82.1255
2023-05-25T07:02:06.526Z,82.5498
2023-05-25T07:03:06.953Z,83.0678
2023-05-25T07:04:07.307Z,82.3263
2023-05-25T07:07:09.492Z,82.7681
2023-05-25T07:10:10.876Z,81.7171
2023-05-25T07:11:10.988Z,81.0927
2023-05-25T07:12:11.436Z,79.1978
2023-05-25T07:13:12.207Z,76.5936
2023-05-25T07:14:12.951Z,76.0792
2023-05-25T07:15:13.331Z,77.6706
2023-05-25T07:16:13.830Z,78.7559
2023-05-25T07:22:18.614Z,82.1145
2023-05-25T07:23:19.456Z,83.0148
2023-05-25T07:24:20.164Z,82.9315
2023-05-25T07:25:22.026Z,83.1396
2023-05-25T07:34:30.409Z,78.6806
2023-05-25T07:35:32.028Z,79.5652
2023-05-25T07:36:32.085Z,78.5110
2023-05-25T07:37:33.199Z,77.5895
2023-05-25T07:38:33.558Z,78.3047
2023-05-25T07:39:34.890Z,78.6553
2023-05-25T07:40:35.812Z,77.6678
2023-05-25T07:41:35.834Z,77.3017
2023-05-25T07:42:37.590Z,75.3642
2023-05-25T07:43:38.327Z,74.4974
2023-05-25T07:44:39.643Z,76.1958
2023-05-25T07:45:41.021Z,76.4701
2023-05-25T07:46:41.951Z,75.6768
2023-05-25T07:47:42.587Z,75.9940
2023-05-25T07:48:43.926Z,76.4263
2023-05-25T07:49:44.225Z,74.1342
2023-05-25T07:50:45.279Z,71.8772
2023-05-25T07:51:45.422Z,73.0947
2023-05-25T07:52:46.300Z,74.5021
2023-05-25T07:53:46.745Z,75.1963
2023-05-25T07:54:47.425Z,70.6440
2023-05-25T07:55:48.328Z,72.1934
2023-05-25T07:57:49.639Z,74.5955
2023-05-25T07:58:50.247Z,76.0880
2023-05-25T08:01:50.434Z,73.3588
2023-05-25T08:03:52.725Z,71.4262
2023-05-25T08:04:53.604Z,72.5387
2023-05-25T08:05:53.680Z,71.9666
2023-05-25T08:15:31.789Z,74.6129
2023-05-25T08:16:32.493Z,75.1928
2023-05-25T08:17:33.392Z,75.7513
2023-05-25T08:18:33.581Z,75.5279
2023-05-25T08:20:34.781Z,76.4797
2023-05-25T08:21:35.252Z,76.4201
2023-05-25T08:22:35.136Z,75.9737
2023-05-25T08:23:36.714Z,76.4155
2023-05-25T08:24:37.237Z,75.5153
2023-05-25T08:25:38.185Z,75.7292
2023-05-25T08:26:53.308Z,75.4095
2023-05-25T08:27:40.011Z,74.6815
2023-05-25T08:28:41.362Z,74.6820
2023-05-25T08:29:41.954Z,75.1393
2023-05-25T08:30:43.306Z,74.7128
2023-05-25T08:31:44.632Z,72.1060
2023-05-25T08:32:44.813Z,70.6756
2023-05-25T08:33:45.686Z,70.9818
2023-05-25T08:34:47.009Z,73.6606
2023-05-25T08:35:47.536Z,73.4177
2023-05-25T08:38:53.902Z,70.8528
2023-05-25T08:39:54.989Z,72.3038
2023-05-25T08:41:55.157Z,72.8133
2023-05-25T08:42:56.323Z,73.9129
2023-05-25T08:43:56.948Z,73.3898
2023-05-25T08:44:57.630Z,75.6271
2023-05-25T08:45:58.237Z,74.1542
2023-05-25T08:46:59.262Z,75.3496
2023-05-25T08:48:00.215Z,74.9278
2023-05-25T08:49:00.756Z,75.0814
2023-05-25T08:56:02.633Z,70.9765
2023-05-25T08:57:03.979Z,71.1406
2023-05-25T08:58:04.073Z,72.5487
2023-05-25T08:59:06.892Z,71.3069
2023-05-25T09:00:05.717Z,71.1736
2023-05-25T09:02:06.768Z,72.1521
2023-05-25T09:03:07.489Z,71.7292
2023-05-25T09:04:07.980Z,72.2900
2023-05-25T09:05:09.009Z,72.1365
2023-05-25T09:06:09.854Z,71.5600
2023-05-25T09:07:11.169Z,72.6721
2023-05-25T09:08:10.798Z,72.6874
2023-05-25T09:09:11.085Z,72.7257
2023-05-25T09:16:14.151Z,73.7832
2023-05-25T09:17:14.215Z,73.7528
2023-05-25T09:18:14.802Z,74.2615
2023-05-25T09:19:17.548Z,74.8757
2023-05-25T09:21:16.901Z,74.1780
2023-05-25T09:29:24.149Z,72.8675
2023-05-25T09:30:24.839Z,71.9078
2023-05-25T09:31:25.213Z,71.5053
2023-05-25T09:32:25.739Z,72.2370
2023-05-25T09:33:26.601Z,71.7201
2023-05-25T09:34:27.557Z,70.3748
2023-05-25T09:35:28.463Z,67.7942
2023-05-25T09:36:28.762Z,68.8681
2023-05-25T09:37:29.774Z,68.5662
2023-05-25T09:38:30.240Z,71.1988
2023-05-25T09:39:30.887Z,68.8499
2023-05-25T09:40:30.916Z,68.4982
2023-05-25T09:41:31.462Z,70.0111
2023-05-25T09:42:32.414Z,69.3616
2023-05-25T09:44:33.710Z,69.3455
2023-05-25T09:45:36.012Z,70.1682
2023-05-25T09:46:35.733Z,70.2036
2023-05-25T09:47:36.504Z,70.2046
2023-05-25T09:48:37.471Z,70.1806
2023-05-25T09:49:37.959Z,71.0029
2023-05-25T09:50:38.375Z,70.4732
2023-05-25T09:52:40.127Z,70.4843
2023-05-25T09:53:40.769Z,69.2313
2023-05-25T09:54:41.814Z,70.5376
2023-05-25T09:55:55.495Z,71.4283
2023-05-25T09:56:43.843Z,72.5751
2023-05-25T09:57:44.901Z,68.2144
2023-05-25T09:58:45.881Z,67.0254
2023-05-25T09:59:46.821Z,65.9498
2023-05-25T10:00:47.163Z,66.7135
2023-05-25T10:01:47.776Z,69.4266
2023-05-25T10:04:02.589Z,68.3355
2023-05-25T10:04:50.762Z,69.6006
2023-05-25T10:05:51.377Z,69.2980
2023-05-25T10:06:52.525Z,69.0295
2023-05-25T10:07:53.564Z,68.3155
2023-05-25T10:08:54.733Z,68.3495
2023-05-25T10:09:55.396Z,66.5235
2023-05-25T10:10:55.447Z,68.6014
2023-05-25T10:11:56.224Z,69.5727
2023-05-25T10:12:57.364Z,70.3436
2023-05-25T10:13:58.587Z,70.7597
2023-05-25T10:14:59.513Z,72.4746
2023-05-25T10:15:59.497Z,71.4901
2023-05-25T10:17:00.228Z,70.4052
2023-05-25T10:18:00.777Z,70.9177
2023-05-25T10:19:00.913Z,71.6241
2023-05-25T10:20:01.670Z,71.3898
2023-05-25T10:21:02.535Z,70.7273
2023-05-25T10:22:03.013Z,72.1767
2023-05-25T10:24:04.451Z,71.1039
2023-05-25T10:25:05.025Z,71.1060
2023-05-25T10:28:06.577Z,68.2634
2023-05-25T10:29:07.051Z,66.9435
2023-05-25T10:30:07.832Z,69.0492
2023-05-25T10:32:08.464Z,68.8170
2023-05-25T10:34:07.583Z,67.5426
2023-05-25T10:35:08.172Z,67.4893
2023-05-25T10:36:11.337Z,68.5833
2023-05-25T10:37:09.060Z,68.1300
2023-05-25T10:40:11.559Z,70.1902
2023-05-25T10:41:12.942Z,69.9111
2023-05-25T10:42:13.161Z,70.1154
2023-05-25T10:43:18.471Z,70.7764
2023-05-25T10:47:17.360Z,71.0234
2023-05-25T10:49:18.024Z,70.7968
2023-05-25T10:50:18.788Z,70.8365
2023-05-25T10:51:19.318Z,70.8591
2023-05-25T10:52:20.121Z,71.2107
2023-05-25T10:53:20.922Z,70.9823
2023-05-25T10:54:21.351Z,70.9307
2023-05-25T10:55:22.123Z,69.6099
2023-05-25T10:56:23.656Z,70.0896
2023-05-25T10:58:23.757Z,70.2380
2023-05-25T10:59:24.311Z,70.1742
2023-05-25T11:00:25.123Z,68.3609
2023-05-25T11:01:26.891Z,69.5914
2023-05-25T11:06:30.994Z,69.1000
2023-05-25T11:07:31.459Z,69.4061
2023-05-25T11:08:32.368Z,69.6367
2023-05-25T11:09:33.830Z,68.9759
2023-05-25T11:10:34.556Z,69.8568
2023-05-25T11:11:34.425Z,69.6593
2023-05-25T11:12:34.673Z,69.0540
2023-05-25T11:13:37.035Z,69.5073
2023-05-25T11:14:37.257Z,68.8469
2023-05-25T11:16:38.213Z,63.9550
2023-05-25T11:17:39.312Z,65.7361
2023-05-25T11:18:39.715Z,66.2007
2023-05-25T11:19:40.928Z,66.4179
2023-05-25T11:21:42.530Z,66.8392
2023-05-25T11:22:43.732Z,67.0297
2023-05-25T11:23:44.150Z,65.7757
2023-05-25T11:24:44.543Z,66.7320
2023-05-25T11:25:46.266Z,67.0857
2023-05-25T11:26:46.108Z,67.7776
2023-05-25T11:27:46.833Z,65.7780
2023-05-25T11:28:47.012Z,66.0915
2023-05-25T11:29:47.979Z,68.0126
2023-05-25T11:30:49.557Z,68.3299
2023-05-25T11:31:49.682Z,67.9187
2023-05-25T11:33:52.305Z,68.5575
2023-05-25T11:34:53.189Z,68.5117
2023-05-25T11:35:54.230Z,69.1592
2023-05-25T11:36:54.453Z,70.1164
2023-05-25T11:37:55.247Z,70.0639
2023-05-25T11:39:06.706Z,67.7530
2023-05-25T11:40:03.139Z,67.4004
2023-05-25T11:41:03.684Z,67.2174
2023-05-25T11:42:03.813Z,66.5634
2023-05-25T11:43:04.115Z,66.1437
2023-05-25T11:44:04.277Z,67.2768
2023-05-25T11:45:05.882Z,66.4631
2023-05-25T11:46:06.293Z,67.6183
2023-05-25T11:47:06.385Z,66.8572
2023-05-25T11:48:07.860Z,66.0947
2023-05-25T11:51:08.794Z,65.3994
2023-05-25T11:52:11.048Z,65.6283
2023-05-25T11:56:12.480Z,62.3730
2023-05-25T11:57:11.359Z,62.1584
2023-05-25T11:58:11.964Z,62.6813
2023-05-25T11:59:12.744Z,61.6052
2023-05-25T12:00:13.047Z,65.2094
2023-05-25T12:01:13.642Z,64.8611
2023-05-25T12:02:14.777Z,62.1647
2023-05-25T12:03:15.326Z,63.9103
2023-05-25T12:04:16.765Z,63.7035
2023-05-25T12:05:16.763Z,64.8043
2023-05-25T12:06:17.885Z,65.3817
2023-05-25T12:07:18.230Z,65.3213
2023-05-25T12:08:19.120Z,64.5855
2023-05-25T12:09:19.834Z,66.0719
2023-05-25T12:11:20.360Z,65.9147
2023-05-25T12:12:20.793Z,63.2540
2023-05-25T12:13:22.477Z,64.0773
2023-05-25T12:14:23.551Z,64.5219
2023-05-25T12:15:24.777Z,60.5865
2023-05-25T12:16:25.857Z,62.7007
2023-05-25T12:18:26.052Z,61.2728
2023-05-25T12:20:26.961Z,62.5023
2023-05-25T12:21:27.200Z,64.7119
2023-05-25T12:22:27.320Z,65.4855
2023-05-25T12:23:29.189Z,63.8470
2023-05-25T12:24:30.068Z,63.4526
2023-05-25T12:25:46.560Z,63.5145
2023-05-25T12:26:34.694Z,64.6512
2023-05-25T12:27:35.232Z,65.2618
2023-05-25T12:28:36.244Z,64.7341
2023-05-25T12:29:37.256Z,64.7866
2023-05-25T12:31:39.593Z,65.5605
2023-05-25T12:32:40.597Z,64.8700
2023-05-25T12:33:41.276Z,65.0575
2023-05-25T12:34:42.325Z,65.2023
2023-05-25T12:35:43.479Z,65.3825
2023-05-25T12:36:44.523Z,65.0501
2023-05-25T12:37:45.527Z,63.5990
2023-05-25T12:38:46.285Z,63.4352
2023-05-25T12:39:47.277Z,65.1558
2023-05-25T12:40:48.107Z,65.4694
2023-05-25T12:41:48.022Z,65.0372
2023-05-25T12:42:49.075Z,65.1258
2023-05-25T12:43:50.308Z,65.0233
2023-05-25T12:44:51.192Z,63.9345
2023-05-25T12:45:51.496Z,65.3447
2023-05-25T12:46:52.467Z,66.2741
2023-05-25T12:47:53.647Z,66.9865
2023-05-25T12:48:54.754Z,67.4372
2023-05-25T12:49:55.721Z,67.3859
2023-05-25T12:50:55.980Z,66.6321
2023-05-25T12:51:57.107Z,66.3029
2023-05-25T12:52:58.123Z,65.9451
2023-05-25T12:53:59.059Z,66.1408
2023-05-25T12:55:00.158Z,67.2445
2023-05-25T12:56:01.256Z,65.7883
2023-05-25T12:57:02.241Z,66.6427
2023-05-25T12:58:03.190Z,65.3447
2023-05-25T12:59:04.007Z,62.9964
2023-05-25T13:00:04.863Z,63.6204
2023-05-25T13:01:05.937Z,62.7319
2023-05-25T13:02:07.227Z,65.8812
2023-05-25T13:03:08.486Z,63.5483
2023-05-25T13:04:09.478Z,64.6659
2023-05-25T13:05:10.653Z,65.1512
2023-05-25T13:06:10.910Z,65.3444
2023-05-25T13:07:12.079Z,64.3507
2023-05-25T13:08:12.201Z,65.5388
2023-05-25T13:09:13.254Z,65.2257
2023-05-25T13:10:14.343Z,65.8006
2023-05-25T13:11:14.504Z,66.8322
2023-05-25T13:12:15.324Z,66.6506
2023-05-25T13:13:16.273Z,64.3676
2023-05-25T13:14:17.133Z,63.8023
2023-05-25T13:15:18.133Z,63.8782
2023-05-25T13:16:19.224Z,62.3692
2023-05-25T13:17:20.261Z,63.0861
2023-05-25T13:18:20.287Z,64.3953
2023-05-25T13:19:21.185Z,62.8545
2023-05-25T13:20:22.136Z,61.0432
2023-05-25T13:21:23.221Z,60.6310
2023-05-25T13:22:24.224Z,61.9756
2023-05-25T13:23:25.192Z,61.1084
2023-05-25T13:24:26.087Z,62.6975
2023-05-25T13:25:27.250Z,62.0396
2023-05-25T13:26:27.542Z,63.4172
2023-05-25T13:27:27.643Z,64.4030
2023-05-25T13:28:28.617Z,65.1245
2023-05-25T13:29:29.603Z,66.0048
2023-05-25T13:30:30.509Z,65.7926
2023-05-25T13:31:30.697Z,65.2995
2023-05-25T13:32:31.834Z,64.3485
2023-05-25T13:33:32.321Z,63.0591
2023-05-25T13:34:33.307Z,64.2403
2023-05-25T13:35:34.365Z,61.7528
2023-05-25T13:36:34.345Z,62.0115
2023-05-25T13:37:35.377Z,60.5813
2023-05-25T13:38:35.646Z,62.5613
2023-05-25T13:39:36.607Z,65.5976
2023-05-25T13:40:37.592Z,63.4194
2023-05-25T13:41:38.559Z,63.0580
2023-05-25T13:42:39.580Z,62.3458
2023-05-25T13:43:41.403Z,58.8037
2023-05-25T13:51:45.559Z,66.4455
2023-05-25T13:52:46.668Z,64.7243
2023-05-25T13:53:47.676Z,66.5091
2023-05-25T13:54:48.574Z,65.8827
2023-05-25T13:55:49.482Z,65.6277
2023-05-25T13:56:50.491Z,66.2260
2023-05-25T13:57:51.360Z,65.1404
2023-05-25T13:58:52.412Z,64.4572
2023-05-25T13:59:53.185Z,66.8423
2023-05-25T14:00:54.082Z,65.3808
2023-05-25T14:01:56.061Z,64.7228
2023-05-25T14:02:54.339Z,63.8628
2023-05-25T14:03:55.345Z,64.0241
2023-05-25T14:04:55.557Z,63.2465
2023-05-25T14:05:56.542Z,64.0620
2023-05-25T14:06:57.657Z,64.0355
2023-05-25T14:07:57.847Z,65.4396
2023-05-25T14:08:58.871Z,66.1223
2023-05-25T14:10:01.173Z,65.8245
2023-05-25T14:11:02.180Z,66.8800
2023-05-25T14:12:06.446Z,66.5235
2023-05-25T14:13:06.360Z,67.2805
2023-05-25T14:14:13.815Z,67.9405
2023-05-25T14:15:08.487Z,65.4949
2023-05-25T14:16:09.515Z,64.6079
2023-05-25T14:17:10.673Z,65.1454
2023-05-25T14:18:11.940Z,63.0965
2023-05-25T14:19:12.812Z,63.3284
2023-05-25T14:20:13.031Z,64.6197
2023-05-25T14:21:13.652Z,63.0391
2023-05-25T14:22:16.052Z,61.5474
2023-05-25T14:23:19.613Z,63.0416
2023-05-25T14:24:20.647Z,63.1558
2023-05-25T14:25:21.632Z,65.1024
2023-05-25T14:26:22.742Z,63.7148
2023-05-25T14:27:23.619Z,64.6080
2023-05-25T14:28:24.473Z,65.6035
2023-05-25T14:31:27.134Z,65.6385
2023-05-25T14:42:36.593Z,63.4711
2023-05-25T14:43:37.647Z,63.6032
2023-05-25T14:44:38.587Z,65.1765
2023-05-25T14:45:38.806Z,65.7428
2023-05-25T14:46:39.083Z,67.4352
2023-05-25T14:47:40.436Z,67.1506
2023-05-25T14:48:41.160Z,66.0369
2023-05-25T14:49:42.326Z,64.4217
2023-05-25T14:50:43.372Z,65.3552
2023-05-25T14:51:44.469Z,66.4385
2023-05-25T14:52:45.670Z,65.7060
2023-05-25T14:53:46.888Z,65.6018
2023-05-25T14:54:47.876Z,67.0369
2023-05-25T14:55:48.704Z,67.0488
2023-05-25T14:56:49.911Z,67.5950
2023-05-25T14:57:50.847Z,67.3142
2023-05-25T14:58:51.842Z,67.2058
2023-05-25T14:59:52.924Z,67.3491
2023-05-25T15:00:54.008Z,67.4193
2023-05-25T15:01:55.195Z,66.5350
2023-05-25T15:02:56.579Z,67.2082
2023-05-25T15:03:57.987Z,67.4109
2023-05-25T15:04:58.559Z,68.2835
2023-05-25T15:05:59.793Z,67.4071
2023-05-25T15:07:00.879Z,67.3072
2023-05-25T15:08:01.877Z,67.9760
2023-05-25T15:09:02.991Z,67.1884
2023-05-25T15:10:06.721Z,65.7403
2023-05-25T15:11:07.735Z,68.0595
2023-05-25T15:12:08.930Z,67.0110
2023-05-25T15:13:11.345Z,67.1112
2023-05-25T15:14:10.579Z,65.8073
2023-05-25T15:15:11.644Z,66.2357
2023-05-25T15:18:14.905Z,66.9844
2023-05-25T15:19:17.557Z,67.2269
2023-05-25T15:20:16.332Z,67.8089
2023-05-25T15:21:17.366Z,66.8054
2023-05-25T15:22:18.282Z,68.6000
2023-05-25T15:23:19.200Z,68.3348
2023-05-25T15:24:20.256Z,68.4273
2023-05-25T15:25:31.590Z,69.6538
2023-05-25T15:26:21.866Z,67.8467
2023-05-25T15:27:22.635Z,68.6432
2023-05-25T15:28:23.539Z,69.1662
2023-05-25T15:29:24.474Z,66.6086
2023-05-25T15:30:25.458Z,66.8891
2023-05-25T15:31:25.942Z,68.3191
2023-05-25T15:32:26.294Z,67.7554
2023-05-25T15:33:36.159Z,68.4536
2023-05-25T15:34:27.781Z,66.6644
2023-05-25T15:35:28.734Z,66.1198
2023-05-25T15:36:29.201Z,66.7479
2023-05-25T15:37:30.388Z,67.1557
2023-05-25T15:39:31.060Z,65.7398
2023-05-25T15:40:32.080Z,64.6144
2023-05-25T15:41:33.094Z,63.1027
2023-05-25T15:42:34.112Z,61.1151
2023-05-25T15:43:35.073Z,60.6907
2023-05-25T15:44:36.007Z,58.0868
2023-05-25T15:45:37.028Z,58.4307
2023-05-25T15:46:37.174Z,57.6251
2023-05-25T15:47:38.289Z,55.6156
2023-05-25T15:48:38.270Z,53.6464
2023-05-25T15:49:39.408Z,54.6659
2023-05-25T15:50:40.654Z,56.7703
2023-05-25T15:51:41.731Z,56.3967
2023-05-25T15:52:42.840Z,55.9914
2023-05-25T15:53:43.684Z,54.5593
2023-05-25T15:54:44.012Z,54.6846
2023-05-25T15:55:45.288Z,57.2972
2023-05-25T15:56:45.196Z,58.7719
2023-05-25T15:57:46.153Z,58.3625
2023-05-25T15:58:47.187Z,59.2060
2023-05-25T15:59:48.042Z,60.0704
2023-05-25T16:00:49.141Z,59.5781
2023-05-25T16:01:49.277Z,56.7895
2023-05-25T16:02:49.355Z,56.4932
2023-05-25T16:03:49.596Z,57.9810
2023-05-25T16:04:49.558Z,56.9482
2023-05-25T16:05:50.688Z,54.3962
2023-05-25T16:06:51.722Z,55.8002
2023-05-25T16:07:52.945Z,57.6474
2023-05-25T16:08:54.096Z,57.3102
2023-05-25T16:09:55.067Z,58.2834
2023-05-25T16:10:56.116Z,57.0933
2023-05-25T16:11:56.906Z,57.2529
2023-05-25T16:12:57.900Z,58.0635
2023-05-25T16:13:59.029Z,58.7366
2023-05-25T16:14:59.884Z,57.2677
2023-05-25T16:19:02.718Z,58.3326
2023-05-25T16:20:03.880Z,58.4325
2023-05-25T16:21:04.897Z,56.9449
2023-05-25T16:22:06.012Z,57.8721
2023-05-25T16:23:07.009Z,59.0917
2023-05-25T16:24:08.003Z,61.0570
2023-05-25T16:25:09.228Z,56.4246
2023-05-25T16:26:10.348Z,55.8428
2023-05-25T16:27:11.096Z,56.3455
2023-05-25T16:28:12.171Z,56.6418
2023-05-25T16:29:13.104Z,57.5987
2023-05-25T16:30:14.245Z,57.6594
2023-05-25T16:31:15.395Z,57.7230
2023-05-25T16:32:16.428Z,56.7365
2023-05-25T16:33:17.624Z,58.7775
2023-05-25T16:34:18.674Z,59.7692
2023-05-25T16:35:19.674Z,59.8708
2023-05-25T16:36:20.559Z,58.6090
2023-05-25T16:37:21.753Z,58.7504
2023-05-25T16:38:22.470Z,59.2766
2023-05-25T16:39:23.136Z,58.0203
2023-05-25T16:40:24.445Z,57.0631
2023-05-25T16:41:25.396Z,58.5326
2023-05-25T16:42:25.392Z,58.8332
2023-05-25T16:43:26.479Z,60.0730